createdAt,value
2019-02-20T00:00:00.932Z,42.50
2019-02-20T00:02:30.246Z,42.93
2019-02-20T00:04:59.297Z,42.97
2019-02-20T00:07:28.206Z,48.70
2019-02-20T00:09:57.252Z,44.47
2019-02-20T00:12:26.344Z,39.87
2019-02-20T00:14:55.810Z,45.37
2019-02-20T00:17:24.869Z,46.87
2019-02-20T00:19:53.840Z,41.20
2019-02-20T00:22:22.871Z,44.13
2019-02-20T00:24:51.845Z,44.13
2019-02-20T00:27:20.824Z,44.40
2019-02-20T00:29:50.160Z,49.30
2019-02-20T00:32:19.160Z,39.97
2019-02-20T00:34:48.260Z,42.77
2019-02-20T00:37:17.356Z,44.00
2019-02-20T00:39:46.337Z,39.17
2019-02-20T00:42:15.286Z,38.97
2019-02-20T00:45:03.340Z,42.00
2019-02-20T00:47:45.529Z,46.00
2019-02-20T00:50:15.100Z,40.50
2019-02-20T00:52:50.475Z,40.10
2019-02-20T00:55:19.702Z,41.30
2019-02-20T00:57:48.800Z,48.47
2019-02-20T01:00:17.753Z,47.03
2019-02-20T01:02:46.823Z,42.73
2019-02-20T01:05:15.835Z,44.77
2019-02-20T01:07:44.395Z,44.57
2019-02-20T01:10:13.452Z,42.90
2019-02-20T01:12:42.544Z,42.90
2019-02-20T01:15:11.540Z,43.83
2019-02-20T01:17:40.602Z,40.73
2019-02-20T01:20:09.799Z,47.00
2019-02-20T01:22:38.778Z,44.47
2019-02-20T01:25:07.870Z,42.70
2019-02-20T01:27:36.929Z,44.93
2019-02-20T01:30:05.924Z,43.80
2019-02-20T01:32:34.964Z,42.97
2019-02-20T01:35:03.985Z,48.07
2019-02-20T01:37:32.951Z,45.70
2019-02-20T01:40:02.160Z,46.13
2019-02-20T01:42:31.130Z,50.10
2019-02-20T01:45:00.282Z,45.03
2019-02-20T01:47:29.427Z,50.20
2019-02-20T01:49:58.430Z,47.07
2019-02-20T01:52:27.313Z,49.10
2019-02-20T01:54:56.324Z,45.03
2019-02-20T01:57:25.231Z,45.00
2019-02-20T01:59:54.333Z,46.70
2019-02-20T02:02:23.302Z,51.87
2019-02-20T02:04:52.292Z,45.90
2019-02-20T02:07:21.297Z,46.67
2019-02-20T02:09:50.402Z,54.30
2019-02-20T02:12:19.363Z,49.53
2019-02-20T02:14:48.315Z,56.63
2019-02-20T02:17:17.280Z,47.10
2019-02-20T02:19:46.314Z,52.50
2019-02-20T02:22:15.410Z,49.77
2019-02-20T02:24:44.478Z,45.40
2019-02-20T02:27:13.483Z,52.03
2019-02-20T02:29:42.339Z,43.63
2019-02-20T02:32:11.359Z,48.63
2019-02-20T02:34:40.513Z,48.67
2019-02-20T02:37:09.566Z,49.40
2019-02-20T02:39:38.010Z,49.73
2019-02-20T02:42:07.087Z,48.90
2019-02-20T02:44:36.161Z,50.20
2019-02-20T02:47:05.157Z,49.50
2019-02-20T02:49:34.247Z,52.60
2019-02-20T02:52:03.308Z,49.60
2019-02-20T02:54:32.441Z,56.17
2019-02-20T02:57:01.392Z,47.07
2019-02-20T02:59:30.531Z,50.87
2019-02-20T03:01:59.051Z,52.80
2019-02-20T03:04:28.107Z,50.47
2019-02-20T03:06:57.058Z,47.23
2019-02-20T03:09:26.018Z,51.30
2019-02-20T03:11:55.077Z,53.23
2019-02-20T03:14:24.042Z,47.43
2019-02-20T03:16:53.156Z,46.37
2019-02-20T03:19:22.192Z,44.97
2019-02-20T03:21:51.320Z,44.40
2019-02-20T03:24:20.260Z,43.23
2019-02-20T03:26:50.868Z,47.80
2019-02-20T03:29:19.911Z,46.33
2019-02-20T03:31:48.926Z,43.73
2019-02-20T03:34:17.878Z,44.00
2019-02-20T03:36:46.804Z,45.37
2019-02-20T03:39:15.881Z,43.47
2019-02-20T03:41:44.864Z,42.40
2019-02-20T03:44:13.753Z,40.83
2019-02-20T03:46:42.734Z,44.70
2019-02-20T03:49:11.609Z,45.80
2019-02-20T03:51:40.618Z,47.40
2019-02-20T03:54:09.561Z,44.07
2019-02-20T03:56:38.494Z,44.77
2019-02-20T03:59:07.410Z,43.87
2019-02-20T04:01:36.559Z,40.97
2019-02-20T04:04:05.533Z,46.57
2019-02-20T04:06:34.516Z,45.40
2019-02-20T04:09:04.866Z,47.70
2019-02-20T04:11:33.772Z,43.80
2019-02-20T04:14:02.827Z,44.60
2019-02-20T04:16:31.441Z,44.00
2019-02-20T04:19:00.312Z,43.10
2019-02-20T04:21:29.450Z,47.67
2019-02-20T04:24:02.627Z,44.77
2019-02-20T04:26:29.273Z,44.77
2019-02-20T04:28:58.173Z,47.67
2019-02-20T04:31:27.198Z,47.03
2019-02-20T04:33:57.325Z,45.37
2019-02-20T04:36:26.372Z,49.33
2019-02-20T04:38:55.340Z,42.07
2019-02-20T04:41:24.354Z,48.20
2019-02-20T04:43:53.306Z,43.57
2019-02-20T04:46:22.194Z,46.37
2019-02-20T04:48:51.351Z,45.20
2019-02-20T04:51:20.344Z,43.50
2019-02-20T04:53:49.264Z,48.00
2019-02-20T04:56:18.220Z,43.20
2019-02-20T04:58:49.441Z,45.80
2019-02-20T05:01:18.522Z,44.60
2019-02-20T05:03:47.613Z,42.30
2019-02-20T05:06:16.629Z,43.03
2019-02-20T05:08:45.679Z,43.70
2019-02-20T05:11:14.637Z,43.43
2019-02-20T05:13:43.564Z,48.53
2019-02-20T05:16:12.567Z,41.10
2019-02-20T05:18:41.753Z,41.60
2019-02-20T05:21:10.974Z,40.43
2019-02-20T05:23:39.952Z,44.00
2019-02-20T05:26:08.847Z,41.30
2019-02-20T05:28:37.774Z,46.93
2019-02-20T05:31:06.717Z,43.20
2019-02-20T05:33:35.701Z,42.67
2019-02-20T05:36:04.794Z,41.83
2019-02-20T05:38:33.766Z,43.43
2019-02-20T05:41:02.661Z,47.17
2019-02-20T05:43:31.604Z,42.57
2019-02-20T05:46:00.632Z,49.90
2019-02-20T05:48:29.654Z,51.03
2019-02-20T05:50:58.714Z,41.13
2019-02-20T05:53:27.587Z,45.87
2019-02-20T05:55:56.533Z,47.40
2019-02-20T05:58:25.553Z,45.77
2019-02-20T06:00:54.578Z,48.40
2019-02-20T06:03:23.537Z,45.60
2019-02-20T06:05:52.548Z,46.70
2019-02-20T06:08:21.523Z,47.83
2019-02-20T06:10:50.078Z,49.70
2019-02-20T06:13:19.151Z,53.73
2019-02-20T06:15:48.125Z,53.97
2019-02-20T06:18:17.199Z,49.73
2019-02-20T06:20:46.219Z,54.57
2019-02-20T06:23:15.768Z,52.57
2019-02-20T06:25:44.344Z,54.60
2019-02-20T06:28:13.296Z,54.50
2019-02-20T06:30:42.408Z,53.63
2019-02-20T06:33:11.470Z,56.53
2019-02-20T06:35:40.728Z,52.40
2019-02-20T06:38:10.927Z,52.83
2019-02-20T06:40:40.417Z,57.60
2019-02-20T06:43:09.541Z,59.77
2019-02-20T06:45:38.435Z,58.37
2019-02-20T06:48:07.447Z,58.83
2019-02-20T06:50:36.388Z,51.20
2019-02-20T06:53:05.491Z,56.57
2019-02-20T06:55:34.440Z,56.70
2019-02-20T06:58:03.469Z,57.50
2019-02-20T07:00:32.451Z,52.77
2019-02-20T07:03:01.401Z,53.93
2019-02-20T07:05:38.753Z,58.13
2019-02-20T07:08:46.217Z,64.57
2019-02-20T07:11:48.031Z,54.70
2019-02-20T07:14:39.455Z,56.23
2019-02-20T07:17:54.337Z,63.43
2019-02-20T07:21:16.357Z,66.10
2019-02-20T07:23:57.844Z,54.33
2019-02-20T07:27:14.247Z,59.40
2019-02-20T07:30:03.992Z,52.83
2019-02-20T07:32:33.888Z,52.83
2019-02-20T07:35:02.942Z,58.70
2019-02-20T07:37:32.099Z,55.17
2019-02-20T07:40:01.081Z,51.17
2019-02-20T07:42:30.048Z,51.93
2019-02-20T07:44:58.988Z,60.83
2019-02-20T07:47:27.964Z,56.63
2019-02-20T07:49:56.964Z,63.03
2019-02-20T07:52:25.940Z,54.13
2019-02-20T07:54:54.945Z,58.80
2019-02-20T07:57:24.886Z,58.40
2019-02-20T07:59:53.944Z,64.87
2019-02-20T08:02:23.014Z,53.00
2019-02-20T08:04:52.018Z,55.53
2019-02-20T08:07:21.009Z,52.90
2019-02-20T08:09:50.208Z,52.37
2019-02-20T08:12:19.102Z,51.73
2019-02-20T08:14:48.131Z,57.70
2019-02-20T08:17:17.112Z,57.97
2019-02-20T08:19:46.188Z,55.70
2019-02-20T08:22:15.368Z,56.37
2019-02-20T08:24:44.874Z,59.23
2019-02-20T08:27:13.948Z,58.20
2019-02-20T08:29:42.912Z,54.23
2019-02-20T08:32:11.922Z,54.00
2019-02-20T08:34:40.848Z,60.27
2019-02-20T08:37:09.818Z,56.67
2019-02-20T08:39:38.732Z,54.43
2019-02-20T08:42:07.877Z,57.33
2019-02-20T08:44:36.907Z,58.60
2019-02-20T08:47:05.872Z,55.13
2019-02-20T08:49:34.836Z,59.10
2019-02-20T08:52:03.882Z,58.63
2019-02-20T08:54:32.731Z,56.43
2019-02-20T08:57:01.716Z,49.40
2019-02-20T08:59:30.736Z,52.07
2019-02-20T09:02:00.346Z,57.33
2019-02-20T09:04:29.469Z,55.20
2019-02-20T09:06:58.460Z,48.97
2019-02-20T09:09:27.473Z,51.57
2019-02-20T09:11:56.534Z,56.10
2019-02-20T09:14:25.646Z,55.97
2019-02-20T09:16:54.605Z,48.93
2019-02-20T09:19:23.680Z,52.00
2019-02-20T09:21:52.732Z,49.27
2019-02-20T09:24:21.701Z,48.00
2019-02-20T09:26:50.688Z,48.53
2019-02-20T09:29:20.093Z,55.97
2019-02-20T09:31:49.088Z,55.00
2019-02-20T09:34:17.985Z,54.57
2019-02-20T09:36:46.920Z,60.77
2019-02-20T09:39:43.161Z,52.00
2019-02-20T09:42:15.909Z,49.13
2019-02-20T09:44:49.598Z,52.13
2019-02-20T09:47:19.532Z,49.23
2019-02-20T09:49:48.505Z,49.07
2019-02-20T09:52:17.606Z,55.57
2019-02-20T09:54:46.619Z,51.70
2019-02-20T09:57:15.694Z,53.00
2019-02-20T09:59:44.651Z,53.70
2019-02-20T10:02:13.747Z,52.30
2019-02-20T10:04:42.697Z,54.00
2019-02-20T10:07:11.837Z,49.43
2019-02-20T10:09:40.848Z,49.33
2019-02-20T10:12:09.870Z,48.67
2019-02-20T10:14:40.398Z,50.27
2019-02-20T10:17:09.601Z,49.47
2019-02-20T10:19:38.556Z,53.63
2019-02-20T10:22:07.706Z,50.30
2019-02-20T10:24:36.671Z,71.63
2019-02-20T10:27:05.841Z,51.97
2019-02-20T10:29:34.806Z,57.40
2019-02-20T10:32:03.864Z,52.50
2019-02-20T10:34:32.951Z,54.00
2019-02-20T10:37:01.818Z,58.83
2019-02-20T10:39:30.756Z,55.03
2019-02-20T10:41:59.826Z,56.63
2019-02-20T10:44:28.825Z,66.20
2019-02-20T10:46:57.860Z,54.33
2019-02-20T10:49:26.824Z,60.53
2019-02-20T10:51:56.048Z,66.47
2019-02-20T10:54:24.927Z,58.57
2019-02-20T10:56:54.065Z,51.23
2019-02-20T10:59:23.389Z,61.03
2019-02-20T11:01:52.373Z,61.37
2019-02-20T11:04:21.359Z,49.40
2019-02-20T11:06:50.263Z,65.87
2019-02-20T11:09:19.160Z,54.40
2019-02-20T11:11:48.348Z,51.57
2019-02-20T11:14:17.356Z,56.53
2019-02-20T11:16:46.372Z,50.50
2019-02-20T11:19:16.070Z,50.40
2019-02-20T11:21:45.378Z,48.37
2019-02-20T11:24:14.354Z,56.70
2019-02-20T11:26:52.940Z,43.27
2019-02-20T11:29:14.103Z,44.13
2019-02-20T11:31:43.072Z,46.20
2019-02-20T11:34:12.202Z,47.30
2019-02-20T11:36:41.253Z,47.80
2019-02-20T11:39:11.659Z,47.83
2019-02-20T11:41:40.777Z,48.97
2019-02-20T11:44:09.782Z,44.13
2019-02-20T11:46:38.836Z,44.60
2019-02-20T11:49:07.849Z,44.33
2019-02-20T11:51:37.290Z,39.80
2019-02-20T11:54:07.534Z,39.33
2019-02-20T11:56:36.528Z,39.73
2019-02-20T11:59:05.496Z,35.67
2019-02-20T12:01:34.520Z,34.30
2019-02-20T12:04:03.502Z,37.57
2019-02-20T12:06:32.396Z,35.20
2019-02-20T12:09:01.497Z,34.30
2019-02-20T12:11:30.452Z,33.57
2019-02-20T12:13:59.517Z,31.83
2019-02-20T12:16:28.415Z,33.07
2019-02-20T12:18:57.404Z,31.90
2019-02-20T12:21:26.363Z,30.77
2019-02-20T12:23:55.305Z,34.50
2019-02-20T12:26:24.300Z,34.67
2019-02-20T12:28:53.272Z,32.70
2019-02-20T12:31:22.281Z,33.10
2019-02-20T12:33:52.292Z,36.23
2019-02-20T12:36:21.361Z,34.77
2019-02-20T12:38:50.337Z,33.97
2019-02-20T12:41:19.200Z,34.50
2019-02-20T12:43:48.215Z,33.80
2019-02-20T12:46:17.261Z,32.77
2019-02-20T12:48:46.240Z,33.67
2019-02-20T12:51:15.428Z,34.30
2019-02-20T12:53:44.348Z,35.93
2019-02-20T12:56:13.337Z,36.17
2019-02-20T12:58:42.439Z,36.40
2019-02-20T13:01:11.495Z,33.10
2019-02-20T13:03:40.505Z,34.47
2019-02-20T13:06:09.601Z,36.40
2019-02-20T13:08:38.488Z,33.13
2019-02-20T13:11:07.581Z,32.33
2019-02-20T13:13:36.556Z,38.07
2019-02-20T13:16:09.525Z,36.57
2019-02-20T13:18:36.350Z,33.70
2019-02-20T13:21:05.257Z,60.03
2019-02-20T13:23:34.262Z,35.27
2019-02-20T13:26:03.229Z,33.20
2019-02-20T13:28:32.113Z,34.70
2019-02-20T13:31:01.110Z,35.77
2019-02-20T13:33:29.999Z,36.07
2019-02-20T13:35:59.128Z,32.07
2019-02-20T13:38:28.125Z,37.80
2019-02-20T13:40:57.092Z,39.30
2019-02-20T13:43:26.425Z,36.20
2019-02-20T13:45:55.420Z,37.50
2019-02-20T13:48:24.426Z,36.93
2019-02-20T13:50:53.664Z,34.73
2019-02-20T13:53:22.624Z,36.87
2019-02-20T13:55:51.629Z,34.77
2019-02-20T13:58:20.589Z,34.30
2019-02-20T14:00:49.741Z,35.63
2019-02-20T14:03:18.951Z,35.90
2019-02-20T14:05:48.025Z,37.87
2019-02-20T14:08:17.234Z,35.30
2019-02-20T14:10:46.378Z,34.80
2019-02-20T14:13:15.364Z,37.50
2019-02-20T14:15:45.667Z,35.47
2019-02-20T14:18:14.786Z,39.93
2019-02-20T14:20:43.837Z,34.80
2019-02-20T14:23:12.883Z,39.40
2019-02-20T14:25:41.920Z,35.20
2019-02-20T14:28:10.860Z,36.07
2019-02-20T14:30:39.897Z,39.87
2019-02-20T14:33:08.962Z,36.07
2019-02-20T14:35:37.996Z,38.30
2019-02-20T14:38:07.313Z,39.40
2019-02-20T14:40:36.369Z,36.90
2019-02-20T14:43:05.364Z,36.00
2019-02-20T14:45:34.413Z,36.37
2019-02-20T14:48:03.685Z,35.30
2019-02-20T14:50:32.723Z,35.77
2019-02-20T14:53:01.768Z,34.90
2019-02-20T14:55:30.881Z,35.70
2019-02-20T14:57:59.953Z,36.50
2019-02-20T15:00:28.826Z,35.07
2019-02-20T15:02:58.221Z,35.93
2019-02-20T15:05:27.272Z,36.97
2019-02-20T15:07:56.318Z,35.93
2019-02-20T15:10:25.685Z,34.90
2019-02-20T15:12:54.835Z,38.00
2019-02-20T15:15:23.809Z,45.80
2019-02-20T15:17:52.804Z,35.90
2019-02-20T15:20:21.874Z,36.90
2019-02-20T15:22:51.389Z,36.57
2019-02-20T15:25:20.560Z,38.00
2019-02-20T15:27:49.662Z,37.80
2019-02-20T15:30:18.702Z,35.50
2019-02-20T15:32:47.659Z,36.57
2019-02-20T15:35:17.102Z,36.40
2019-02-20T15:37:46.134Z,36.70
2019-02-20T15:40:15.254Z,37.57
2019-02-20T15:42:44.432Z,36.67
2019-02-20T15:45:13.881Z,35.07
2019-02-20T15:47:42.964Z,39.47
2019-02-20T15:50:12.509Z,34.03
2019-02-20T15:52:41.557Z,34.47
2019-02-20T15:55:11.432Z,38.13
2019-02-20T15:57:40.700Z,36.93
2019-02-20T16:00:11.550Z,40.37
2019-02-20T16:02:40.773Z,42.43
2019-02-20T16:05:10.025Z,41.20
2019-02-20T16:07:39.088Z,37.40
2019-02-20T16:10:08.927Z,35.47
2019-02-20T16:12:38.126Z,39.63
2019-02-20T16:15:07.809Z,37.07
2019-02-20T16:17:36.993Z,33.90
2019-02-20T16:20:07.517Z,38.30
2019-02-20T16:22:36.703Z,36.00
2019-02-20T16:25:06.293Z,36.43
2019-02-20T16:27:34.924Z,38.13
2019-02-20T16:30:03.967Z,35.67
2019-02-20T16:32:33.044Z,34.17
2019-02-20T16:35:01.665Z,37.70
2019-02-20T16:37:31.217Z,35.20
2019-02-20T16:40:00.364Z,34.30
2019-02-20T16:42:29.453Z,31.10
2019-02-20T16:44:58.424Z,37.63
2019-02-20T16:47:27.548Z,35.50
2019-02-20T16:49:56.440Z,33.67
2019-02-20T16:52:25.504Z,34.60
2019-02-20T16:54:55.094Z,35.00
2019-02-20T16:57:24.262Z,31.77
2019-02-20T16:59:53.276Z,38.13
2019-02-20T17:02:22.242Z,39.00
2019-02-20T17:04:59.299Z,40.40
2019-02-20T17:07:23.445Z,37.50
2019-02-20T17:09:52.448Z,36.90
2019-02-20T17:12:21.631Z,35.80
2019-02-20T17:14:50.962Z,41.43
2019-02-20T17:17:20.034Z,35.47
2019-02-20T17:19:49.025Z,36.30
2019-02-20T17:22:17.971Z,35.03
2019-02-20T17:24:47.812Z,36.77
2019-02-20T17:27:16.968Z,41.07
2019-02-20T17:29:46.216Z,37.60
2019-02-20T17:32:15.229Z,34.70
2019-02-20T17:34:44.237Z,39.07
2019-02-20T17:37:13.305Z,37.80
2019-02-20T17:39:42.721Z,41.40
2019-02-20T17:42:11.712Z,39.20
2019-02-20T17:44:42.137Z,37.43
2019-02-20T17:47:11.340Z,38.97
2019-02-20T17:49:40.322Z,38.70
2019-02-20T17:52:09.290Z,38.60
2019-02-20T17:54:38.701Z,41.60
2019-02-20T17:57:07.678Z,36.67
2019-02-20T17:59:36.844Z,40.30
2019-02-20T18:02:06.013Z,41.70
2019-02-20T18:04:35.978Z,39.70
2019-02-20T18:07:05.255Z,38.93
2019-02-20T18:09:34.341Z,44.60
2019-02-20T18:12:03.497Z,42.20
2019-02-20T18:14:32.593Z,42.10
2019-02-20T18:17:01.728Z,38.83
2019-02-20T18:19:30.722Z,36.97
2019-02-20T18:21:59.896Z,37.03
2019-02-20T18:24:29.183Z,35.43
2019-02-20T18:26:58.274Z,39.77
2019-02-20T18:29:26.861Z,38.57
2019-02-20T18:31:56.183Z,42.23
2019-02-20T18:34:25.220Z,40.07
2019-02-20T18:36:54.278Z,37.23
2019-02-20T18:39:23.376Z,49.40
2019-02-20T18:41:51.921Z,42.20
2019-02-20T18:44:20.998Z,38.63
2019-02-20T18:46:51.320Z,37.90
2019-02-20T18:49:21.117Z,43.93
2019-02-20T18:51:50.510Z,37.30
2019-02-20T18:54:21.321Z,39.73
2019-02-20T18:56:50.501Z,38.50
2019-02-20T18:59:19.580Z,39.23
2019-02-20T19:01:48.560Z,37.07
2019-02-20T19:04:17.688Z,42.73
2019-02-20T19:06:46.707Z,42.43
2019-02-20T19:09:23.758Z,42.23
2019-02-20T19:12:09.090Z,39.77
2019-02-20T19:14:51.725Z,40.87
2019-02-20T19:17:57.072Z,42.07
2019-02-20T19:20:59.138Z,43.37
2019-02-20T19:24:07.635Z,38.03
2019-02-20T19:26:47.620Z,42.83
2019-02-20T19:29:54.151Z,42.47
2019-02-20T19:33:31.048Z,49.87
2019-02-20T19:36:39.628Z,41.13
2019-02-20T19:39:16.716Z,51.90
2019-02-20T19:42:19.426Z,43.20
2019-02-20T19:45:04.694Z,45.27
2019-02-20T19:47:45.634Z,45.00
2019-02-20T19:50:29.290Z,45.17
2019-02-20T19:53:28.247Z,39.90
2019-02-20T19:56:25.063Z,42.07
2019-02-20T19:59:25.850Z,45.97
2019-02-20T20:02:32.921Z,48.90
2019-02-20T20:05:27.713Z,47.50
2019-02-20T20:08:21.014Z,46.43
2019-02-20T20:11:12.954Z,41.10
2019-02-20T20:14:25.615Z,46.50
2019-02-20T20:17:30.654Z,41.60
2019-02-20T20:20:27.436Z,43.50
2019-02-20T20:23:38.007Z,40.90
2019-02-20T20:26:41.651Z,38.00
2019-02-20T20:30:01.532Z,39.63
2019-02-20T20:32:58.341Z,39.50
2019-02-20T20:36:18.207Z,40.63
2019-02-20T20:39:13.090Z,43.17
2019-02-20T20:42:03.841Z,43.07
2019-02-20T20:44:39.001Z,45.63
2019-02-20T20:47:29.494Z,44.63
2019-02-20T20:50:36.965Z,46.37
2019-02-20T20:53:43.699Z,41.43
2019-02-20T20:56:57.285Z,43.00
2019-02-20T21:00:07.247Z,43.20
2019-02-20T21:02:51.845Z,48.47
2019-02-20T21:06:03.315Z,44.37
2019-02-20T21:08:56.134Z,50.10
2019-02-20T21:12:01.548Z,47.30
2019-02-20T21:15:18.373Z,47.30
2019-02-20T21:18:00.943Z,52.00
2019-02-20T21:20:54.640Z,55.60
2019-02-20T21:24:16.999Z,62.50
2019-02-20T21:27:15.453Z,51.00
2019-02-20T21:30:03.269Z,50.93
2019-02-20T21:33:17.552Z,54.17
2019-02-20T21:36:14.564Z,56.53
2019-02-20T21:39:27.207Z,49.43
2019-02-20T21:42:25.577Z,51.47
2019-02-20T21:45:01.202Z,46.90
2019-02-20T21:47:49.481Z,48.80
2019-02-20T21:50:46.154Z,53.80
2019-02-20T21:53:47.614Z,48.07
2019-02-20T21:56:30.962Z,48.83
2019-02-20T21:59:50.849Z,51.97
2019-02-20T22:02:51.414Z,45.77
2019-02-20T22:05:36.510Z,49.80
2019-02-20T22:08:32.706Z,48.13
2019-02-20T22:11:30.742Z,48.00
2019-02-20T22:14:21.171Z,48.20
2019-02-20T22:17:34.330Z,63.50
2019-02-20T22:20:51.506Z,57.53
2019-02-20T22:23:35.773Z,56.90
2019-02-20T22:26:32.086Z,52.50
2019-02-20T22:29:56.881Z,59.90
2019-02-20T22:33:11.973Z,57.13
2019-02-20T22:36:14.338Z,50.00
2019-02-20T22:39:05.596Z,60.57
2019-02-20T22:42:18.433Z,53.97
2019-02-20T22:45:33.582Z,47.50
2019-02-20T22:48:36.451Z,54.13
2019-02-20T22:51:24.248Z,50.43
2019-02-20T22:54:09.436Z,48.23
2019-02-20T22:56:50.800Z,52.20
2019-02-20T23:00:01.522Z,50.50
2019-02-20T23:03:19.824Z,57.07
2019-02-20T23:06:31.609Z,54.83
2019-02-20T23:09:22.232Z,53.97
2019-02-20T23:12:34.469Z,48.03
2019-02-20T23:15:03.612Z,48.53
2019-02-20T23:17:32.604Z,51.30
2019-02-20T23:20:01.517Z,51.80
2019-02-20T23:22:30.624Z,51.90
2019-02-20T23:24:59.611Z,52.87
2019-02-20T23:27:28.583Z,53.10
2019-02-20T23:29:57.641Z,48.83
2019-02-20T23:32:26.776Z,52.03
2019-02-20T23:34:55.833Z,54.87
2019-02-20T23:37:24.449Z,51.07
2019-02-20T23:39:53.426Z,57.30
2019-02-20T23:42:22.440Z,59.57
2019-02-20T23:44:52.445Z,49.80
2019-02-20T23:47:21.418Z,52.40
2019-02-20T23:49:50.436Z,56.53
2019-02-20T23:52:19.489Z,53.30
2019-02-20T23:54:48.488Z,54.53
2019-02-20T23:57:17.471Z,52.83
2019-02-20T23:59:46.704Z,51.97
